createdAt,value
2022-11-17T00:00:39.632Z,5.40
2022-11-17T00:01:39.595Z,5.10
2022-11-17T00:02:39.699Z,6.30
2022-11-17T00:03:39.581Z,7.30
2022-11-17T00:04:39.699Z,6.40
2022-11-17T00:05:39.566Z,3.80
2022-11-17T00:06:39.546Z,2.80
2022-11-17T00:07:39.548Z,5.00
2022-11-17T00:08:39.543Z,6.40
2022-11-17T00:09:39.502Z,4.70
2022-11-17T00:10:39.471Z,4.40
2022-11-17T00:11:39.500Z,5.80
2022-11-17T00:12:39.510Z,3.30
2022-11-17T00:13:39.460Z,4.20
2022-11-17T00:14:39.414Z,3.60
2022-11-17T00:15:39.488Z,2.50
2022-11-17T00:16:39.389Z,4.60
2022-11-17T00:17:39.458Z,2.30
2022-11-17T00:18:39.373Z,2.20
2022-11-17T00:19:39.363Z,3.30
2022-11-17T00:20:39.334Z,5.20
2022-11-17T00:21:39.332Z,3.50
2022-11-17T00:22:39.384Z,5.70
2022-11-17T00:23:39.304Z,4.00
2022-11-17T00:24:39.338Z,3.40
2022-11-17T00:25:39.312Z,3.20
2022-11-17T00:26:39.257Z,4.10
2022-11-17T00:27:39.247Z,3.70
2022-11-17T00:28:39.251Z,5.50
2022-11-17T00:29:39.563Z,5.50
2022-11-17T00:30:42.460Z,4.40
2022-11-17T00:31:39.201Z,5.70
2022-11-17T00:32:39.186Z,6.30
2022-11-17T00:33:39.214Z,3.50
2022-11-17T00:34:39.168Z,3.00
2022-11-17T00:35:39.145Z,5.80
2022-11-17T00:36:39.156Z,2.40
2022-11-17T00:37:39.124Z,3.70
2022-11-17T00:38:39.144Z,2.70
2022-11-17T00:39:39.141Z,5.50
2022-11-17T00:40:39.074Z,3.70
2022-11-17T00:41:39.115Z,3.70
2022-11-17T00:42:39.046Z,4.50
2022-11-17T00:43:39.043Z,6.40
2022-11-17T00:44:39.067Z,4.50
2022-11-17T00:45:39.013Z,5.20
2022-11-17T00:46:39.040Z,5.00
2022-11-17T00:47:38.993Z,5.50
2022-11-17T00:48:38.969Z,5.10
2022-11-17T00:49:39.002Z,3.60
2022-11-17T00:50:38.972Z,3.80
2022-11-17T00:51:38.949Z,4.10
2022-11-17T00:52:39.016Z,3.50
2022-11-17T00:53:38.926Z,4.50
2022-11-17T00:54:38.885Z,4.70
2022-11-17T00:55:39.027Z,3.70
2022-11-17T00:56:38.856Z,6.40
2022-11-17T00:57:38.882Z,4.70
2022-11-17T00:58:38.833Z,5.10
2022-11-17T00:59:38.831Z,3.00
2022-11-17T01:00:38.803Z,5.20
2022-11-17T01:01:38.867Z,4.80
2022-11-17T01:02:38.814Z,5.80
2022-11-17T01:03:38.814Z,4.90
2022-11-17T01:04:38.748Z,5.20
2022-11-17T01:05:38.777Z,3.90
2022-11-17T01:06:38.811Z,4.90
2022-11-17T01:07:38.844Z,4.30
2022-11-17T01:08:38.710Z,4.90
2022-11-17T01:09:38.788Z,4.70
2022-11-17T01:10:38.675Z,4.60
2022-11-17T01:11:38.676Z,5.10
2022-11-17T01:12:38.701Z,5.40
2022-11-17T01:13:38.704Z,5.60
2022-11-17T01:14:38.648Z,4.30
2022-11-17T01:15:38.622Z,4.00
2022-11-17T01:16:38.743Z,4.90
2022-11-17T01:17:38.642Z,4.80
2022-11-17T01:18:38.616Z,5.00
2022-11-17T01:19:38.575Z,2.80
2022-11-17T01:20:38.537Z,4.70
2022-11-17T01:21:38.588Z,12.50
2022-11-17T01:22:38.524Z,5.00
2022-11-17T01:23:38.548Z,3.70
2022-11-17T01:24:38.492Z,5.20
2022-11-17T01:25:38.528Z,4.40
2022-11-17T01:26:38.454Z,4.90
2022-11-17T01:27:38.462Z,5.20
2022-11-17T01:28:38.516Z,2.70
2022-11-17T01:29:38.439Z,3.60
2022-11-17T01:30:38.470Z,5.80
2022-11-17T01:31:38.415Z,2.60
2022-11-17T01:32:38.386Z,4.20
2022-11-17T01:33:38.511Z,5.40
2022-11-17T01:34:38.384Z,3.10
2022-11-17T01:35:38.357Z,5.50
2022-11-17T01:36:38.326Z,3.10
2022-11-17T01:37:38.370Z,4.30
2022-11-17T01:38:38.303Z,5.90
2022-11-17T01:39:38.356Z,3.40
2022-11-17T01:40:38.283Z,5.00
2022-11-17T01:41:38.275Z,5.90
2022-11-17T01:42:38.281Z,3.70
2022-11-17T01:43:38.281Z,3.90
2022-11-17T01:44:38.236Z,4.20
2022-11-17T01:45:38.267Z,3.90
2022-11-17T01:46:38.225Z,4.60
2022-11-17T01:47:38.220Z,3.00
2022-11-17T01:48:38.166Z,4.60
2022-11-17T01:49:38.216Z,6.00
2022-11-17T01:50:38.190Z,4.90
2022-11-17T01:51:38.145Z,3.90
2022-11-17T01:52:38.121Z,3.80
2022-11-17T01:53:38.304Z,2.30
2022-11-17T01:54:38.165Z,5.70
2022-11-17T01:55:38.100Z,3.40
2022-11-17T01:56:38.145Z,4.60
2022-11-17T01:57:38.129Z,3.00
2022-11-17T01:58:38.076Z,5.20
2022-11-17T01:59:38.081Z,3.60
2022-11-17T02:00:38.039Z,2.90
2022-11-17T02:01:38.187Z,4.60
2022-11-17T02:02:38.017Z,2.80
2022-11-17T02:03:38.399Z,5.50
2022-11-17T02:04:38.027Z,3.90
2022-11-17T02:05:37.999Z,2.70
2022-11-17T02:06:38.031Z,3.80
2022-11-17T02:07:38.089Z,5.10
2022-11-17T02:08:37.940Z,4.90
2022-11-17T02:09:37.939Z,5.30
2022-11-17T02:10:37.940Z,3.20
2022-11-17T02:11:37.921Z,3.00
2022-11-17T02:12:37.988Z,3.80
2022-11-17T02:13:38.140Z,3.20
2022-11-17T02:14:37.839Z,3.30
2022-11-17T02:15:37.849Z,4.30
2022-11-17T02:16:37.811Z,4.30
2022-11-17T02:17:37.905Z,4.20
2022-11-17T02:18:37.846Z,3.90
2022-11-17T02:19:37.818Z,4.30
2022-11-17T02:20:37.760Z,3.90
2022-11-17T02:21:37.753Z,5.10
2022-11-17T02:22:37.794Z,3.20
2022-11-17T02:23:37.993Z,4.30
2022-11-17T02:24:37.734Z,4.10
2022-11-17T02:25:37.696Z,5.50
2022-11-17T02:26:37.819Z,4.10
2022-11-17T02:27:37.690Z,3.30
2022-11-17T02:28:37.643Z,2.40
2022-11-17T02:29:37.712Z,3.00
2022-11-17T02:30:37.632Z,4.10
2022-11-17T02:31:37.646Z,4.10
2022-11-17T02:32:37.605Z,4.00
2022-11-17T02:33:37.996Z,3.60
2022-11-17T02:34:37.620Z,4.50
2022-11-17T02:35:37.572Z,5.20
2022-11-17T02:36:37.535Z,2.70
2022-11-17T02:37:37.596Z,2.90
2022-11-17T02:38:37.515Z,3.10
2022-11-17T02:39:37.553Z,3.50
2022-11-17T02:40:37.577Z,4.50
2022-11-17T02:41:37.502Z,3.80
2022-11-17T02:42:37.461Z,4.30
2022-11-17T02:43:37.771Z,4.10
2022-11-17T02:44:37.442Z,2.70
2022-11-17T02:45:37.479Z,4.00
2022-11-17T02:46:37.419Z,5.80
2022-11-17T02:47:37.415Z,4.30
2022-11-17T02:48:37.439Z,3.40
2022-11-17T02:49:37.401Z,2.70
2022-11-17T02:50:37.362Z,3.10
2022-11-17T02:51:37.380Z,3.60
2022-11-17T02:52:37.345Z,2.80
2022-11-17T02:53:37.766Z,3.10
2022-11-17T02:54:37.309Z,3.90
2022-11-17T02:55:37.393Z,3.90
2022-11-17T02:56:37.328Z,3.60
2022-11-17T02:57:37.279Z,2.80
2022-11-17T02:58:37.358Z,4.60
2022-11-17T02:59:37.269Z,2.90
2022-11-17T03:00:37.228Z,2.80
2022-11-17T03:01:37.269Z,3.10
2022-11-17T03:02:37.348Z,3.40
2022-11-17T03:03:37.505Z,3.10
2022-11-17T03:04:37.172Z,2.70
2022-11-17T03:05:37.201Z,3.30
2022-11-17T03:06:37.184Z,4.80
2022-11-17T03:07:37.268Z,2.90
2022-11-17T03:08:37.120Z,3.70
2022-11-17T03:09:37.117Z,2.40
2022-11-17T03:10:37.095Z,3.80
2022-11-17T03:11:37.087Z,2.90
2022-11-17T03:12:37.112Z,4.40
2022-11-17T03:13:37.413Z,4.10
2022-11-17T03:14:37.050Z,2.90
2022-11-17T03:15:37.124Z,3.50
2022-11-17T03:16:37.044Z,2.10
2022-11-17T03:17:37.018Z,2.90
2022-11-17T03:18:37.078Z,6.00
2022-11-17T03:19:36.988Z,4.50
2022-11-17T03:20:36.960Z,2.10
2022-11-17T03:21:36.973Z,3.00
2022-11-17T03:22:36.941Z,4.10
2022-11-17T03:23:37.456Z,3.40
2022-11-17T03:24:36.936Z,3.70
2022-11-17T03:25:36.910Z,2.70
2022-11-17T03:26:36.904Z,3.70
2022-11-17T03:27:36.941Z,4.40
2022-11-17T03:28:36.853Z,2.50
2022-11-17T03:29:36.909Z,3.40
2022-11-17T03:30:37.753Z,3.90
2022-11-17T03:31:36.820Z,2.80
2022-11-17T03:32:36.824Z,1.60
2022-11-17T03:33:37.261Z,3.20
2022-11-17T03:34:36.791Z,3.80
2022-11-17T03:35:36.793Z,5.60
2022-11-17T03:36:36.764Z,4.40
2022-11-17T03:37:36.834Z,5.90
2022-11-17T03:38:36.758Z,1.90
2022-11-17T03:39:36.708Z,3.30
2022-11-17T03:40:36.870Z,3.00
2022-11-17T03:41:36.688Z,3.00
2022-11-17T03:42:36.708Z,3.90
2022-11-17T03:43:37.149Z,4.00
2022-11-17T03:44:36.691Z,4.50
2022-11-17T03:45:36.630Z,2.70
2022-11-17T03:46:36.718Z,2.60
2022-11-17T03:47:36.602Z,3.90
2022-11-17T03:48:36.606Z,2.40
2022-11-17T03:49:36.600Z,6.00
2022-11-17T03:50:36.578Z,5.90
2022-11-17T03:51:36.593Z,3.10
2022-11-17T03:52:36.552Z,3.70
2022-11-17T03:53:36.928Z,4.70
2022-11-17T03:54:36.547Z,4.60
2022-11-17T03:55:36.577Z,3.40
2022-11-17T03:56:36.526Z,3.00
2022-11-17T03:57:36.540Z,3.10
2022-11-17T03:58:36.493Z,6.10
2022-11-17T03:59:36.488Z,4.40
2022-11-17T04:00:36.456Z,3.20
2022-11-17T04:01:36.521Z,5.80
2022-11-17T04:02:36.449Z,5.00
2022-11-17T04:03:36.708Z,4.60
2022-11-17T04:04:36.401Z,5.00
2022-11-17T04:05:36.405Z,6.00
2022-11-17T04:06:36.370Z,3.60
2022-11-17T04:07:36.429Z,5.90
2022-11-17T04:08:36.372Z,4.30
2022-11-17T04:09:36.310Z,3.40
2022-11-17T04:10:36.321Z,4.80
2022-11-17T04:11:36.329Z,5.10
2022-11-17T04:12:36.291Z,4.80
2022-11-17T04:13:36.488Z,4.90
2022-11-17T04:14:36.274Z,4.80
2022-11-17T04:15:36.267Z,4.50
2022-11-17T04:16:36.238Z,3.90
2022-11-17T04:17:36.224Z,3.20
2022-11-17T04:18:36.267Z,4.50
2022-11-17T04:19:36.200Z,4.60
2022-11-17T04:20:36.183Z,6.40
2022-11-17T04:21:36.159Z,3.90
2022-11-17T04:22:36.175Z,5.50
2022-11-17T04:23:36.567Z,3.40
2022-11-17T04:24:36.175Z,5.00
2022-11-17T04:25:36.107Z,4.40
2022-11-17T04:26:36.112Z,4.80
2022-11-17T04:27:36.088Z,3.80
2022-11-17T04:28:36.082Z,4.00
2022-11-17T04:29:36.106Z,5.00
2022-11-17T04:30:36.042Z,4.60
2022-11-17T04:31:36.030Z,4.80
2022-11-17T04:32:36.035Z,4.70
2022-11-17T04:33:36.272Z,5.20
2022-11-17T04:34:35.996Z,5.10
2022-11-17T04:35:36.007Z,7.10
2022-11-17T04:36:36.011Z,4.40
2022-11-17T04:37:35.958Z,4.20
2022-11-17T04:38:35.968Z,4.60
2022-11-17T04:39:35.915Z,5.00
2022-11-17T04:40:35.971Z,4.80
2022-11-17T04:41:36.002Z,5.20
2022-11-17T04:42:35.897Z,6.10
2022-11-17T04:43:36.205Z,5.10
2022-11-17T04:44:35.901Z,5.60
2022-11-17T04:45:35.846Z,5.40
2022-11-17T04:46:35.890Z,3.10
2022-11-17T04:47:35.810Z,4.70
2022-11-17T04:48:35.852Z,4.00
2022-11-17T04:49:35.790Z,4.80
2022-11-17T04:50:35.795Z,3.90
2022-11-17T04:51:35.824Z,3.20
2022-11-17T04:52:35.761Z,4.60
2022-11-17T04:53:36.081Z,4.10
2022-11-17T04:54:35.767Z,4.20
2022-11-17T04:55:35.716Z,5.70
2022-11-17T04:56:35.711Z,6.50
2022-11-17T04:57:35.713Z,3.40
2022-11-17T04:58:35.701Z,4.70
2022-11-17T04:59:35.656Z,5.10
2022-11-17T05:00:35.659Z,6.70
2022-11-17T05:01:35.710Z,4.40
2022-11-17T05:02:35.713Z,4.40
2022-11-17T05:03:35.989Z,5.90
2022-11-17T05:04:35.629Z,4.80
2022-11-17T05:05:35.607Z,7.50
2022-11-17T05:06:35.595Z,8.00
2022-11-17T05:07:35.666Z,8.20
2022-11-17T05:08:35.555Z,3.40
2022-11-17T05:09:35.586Z,7.60
2022-11-17T05:10:35.553Z,4.80
2022-11-17T05:11:35.498Z,6.00
2022-11-17T05:12:35.547Z,6.00
2022-11-17T05:13:35.790Z,5.70
2022-11-17T05:14:35.467Z,5.20
2022-11-17T05:15:35.441Z,6.00
2022-11-17T05:16:35.469Z,2.90
2022-11-17T05:17:35.415Z,5.50
2022-11-17T05:18:35.452Z,3.90
2022-11-17T05:19:35.406Z,7.10
2022-11-17T05:20:35.392Z,5.60
2022-11-17T05:21:35.377Z,4.20
2022-11-17T05:22:35.371Z,7.10
2022-11-17T05:23:35.731Z,4.20
2022-11-17T05:24:35.338Z,4.30
2022-11-17T05:25:35.308Z,3.90
2022-11-17T05:26:35.332Z,3.50
2022-11-17T05:27:35.351Z,4.10
2022-11-17T05:28:35.291Z,7.30
2022-11-17T05:29:35.305Z,6.40
2022-11-17T05:30:35.291Z,4.50
2022-11-17T05:31:35.238Z,6.20
2022-11-17T05:32:35.284Z,5.30
2022-11-17T05:33:37.931Z,6.50
2022-11-17T05:34:35.248Z,6.40
2022-11-17T05:35:35.250Z,3.90
2022-11-17T05:36:35.184Z,5.40
2022-11-17T05:37:35.166Z,5.90
2022-11-17T05:38:35.154Z,4.20
2022-11-17T05:39:35.170Z,6.20
2022-11-17T05:40:35.199Z,7.50
2022-11-17T05:41:35.106Z,4.90
2022-11-17T05:42:35.108Z,3.80
2022-11-17T05:43:35.359Z,8.20
2022-11-17T05:44:35.140Z,4.80
2022-11-17T05:45:35.094Z,3.50
2022-11-17T05:46:35.051Z,4.30
2022-11-17T05:47:35.122Z,4.80
2022-11-17T05:48:35.044Z,6.80
2022-11-17T05:49:35.018Z,3.30
2022-11-17T05:50:35.041Z,4.60
2022-11-17T05:51:34.976Z,4.40
2022-11-17T05:52:34.988Z,3.80
2022-11-17T05:53:35.275Z,4.60
2022-11-17T05:54:34.949Z,3.50
2022-11-17T05:55:34.993Z,4.50
2022-11-17T05:56:34.912Z,6.60
2022-11-17T05:57:34.899Z,3.10
2022-11-17T05:58:34.895Z,5.20
2022-11-17T05:59:34.947Z,5.60
2022-11-17T06:00:34.871Z,3.60
2022-11-17T06:01:34.867Z,5.20
2022-11-17T06:02:34.886Z,4.80
2022-11-17T06:03:35.073Z,4.30
2022-11-17T06:04:34.945Z,6.50
2022-11-17T06:05:34.795Z,4.50
2022-11-17T06:06:34.820Z,3.80
2022-11-17T06:07:34.834Z,4.80
2022-11-17T06:08:34.787Z,5.60
2022-11-17T06:09:34.787Z,7.00
2022-11-17T06:10:34.758Z,7.20
2022-11-17T06:11:34.758Z,4.80
2022-11-17T06:12:34.743Z,5.70
2022-11-17T06:13:34.946Z,6.10
2022-11-17T06:14:34.706Z,6.40
2022-11-17T06:15:34.648Z,9.70
2022-11-17T06:16:34.716Z,7.00
2022-11-17T06:17:34.603Z,5.90
2022-11-17T06:18:34.593Z,5.00
2022-11-17T06:19:34.645Z,4.90
2022-11-17T06:20:34.601Z,6.30
2022-11-17T06:22:04.488Z,5.10
2022-11-17T06:22:34.697Z,7.40
2022-11-17T06:23:34.855Z,4.90
2022-11-17T06:24:34.495Z,5.90
2022-11-17T06:25:34.498Z,7.90
2022-11-17T06:26:34.484Z,6.70
2022-11-17T06:27:34.575Z,7.80
2022-11-17T06:28:34.482Z,7.40
2022-11-17T06:29:38.170Z,6.10
2022-11-17T06:30:34.445Z,7.00
2022-11-17T06:31:34.390Z,5.70
2022-11-17T06:32:34.398Z,9.00
2022-11-17T06:33:34.691Z,5.30
2022-11-17T06:34:34.364Z,4.70
2022-11-17T06:35:34.353Z,7.90
2022-11-17T06:36:34.351Z,8.00
2022-11-17T06:37:34.360Z,6.00
2022-11-17T06:38:34.356Z,7.90
2022-11-17T06:39:34.289Z,9.00
2022-11-17T06:40:34.381Z,9.00
2022-11-17T06:41:34.271Z,5.90
2022-11-17T06:42:34.275Z,5.50
2022-11-17T06:43:34.696Z,5.10
2022-11-17T06:44:34.250Z,7.80
2022-11-17T06:45:34.261Z,8.50
2022-11-17T06:46:34.216Z,7.90
2022-11-17T06:47:34.205Z,8.80
2022-11-17T06:48:34.526Z,6.90
2022-11-17T06:49:34.179Z,7.10
2022-11-17T06:50:34.181Z,9.10
2022-11-17T06:51:34.130Z,8.20
2022-11-17T06:52:34.228Z,7.40
2022-11-17T06:53:34.427Z,10.30
2022-11-17T06:54:34.142Z,5.20
2022-11-17T06:55:34.156Z,7.40
2022-11-17T06:56:34.091Z,7.00
2022-11-17T06:57:34.059Z,8.70
2022-11-17T06:58:34.495Z,10.20
2022-11-17T06:59:34.068Z,7.10
2022-11-17T07:00:34.067Z,10.50
2022-11-17T07:01:34.077Z,6.20
2022-11-17T07:02:34.009Z,7.70
2022-11-17T07:03:34.321Z,7.10
2022-11-17T07:04:34.077Z,12.50
2022-11-17T07:05:33.985Z,7.10
2022-11-17T07:06:34.049Z,8.90
2022-11-17T07:07:34.030Z,8.40
2022-11-17T07:08:34.244Z,8.10
2022-11-17T07:09:33.908Z,10.30
2022-11-17T07:10:34.044Z,8.60
2022-11-17T07:11:33.909Z,9.90
2022-11-17T07:12:33.891Z,9.40
2022-11-17T07:13:33.883Z,10.90
2022-11-17T07:14:33.861Z,8.90
2022-11-17T07:15:33.880Z,10.10
2022-11-17T07:16:33.836Z,7.00
2022-11-17T07:17:33.836Z,8.50
2022-11-17T07:18:34.184Z,10.40
2022-11-17T07:19:33.789Z,9.60
2022-11-17T07:20:33.872Z,8.30
2022-11-17T07:21:33.769Z,6.70
2022-11-17T07:22:33.753Z,11.60
2022-11-17T07:23:33.796Z,9.00
2022-11-17T07:24:33.719Z,8.50
2022-11-17T07:25:33.730Z,10.80
2022-11-17T07:26:33.728Z,10.10
2022-11-17T07:27:33.659Z,10.80
2022-11-17T07:28:34.036Z,7.40
2022-11-17T07:29:33.693Z,11.20
2022-11-17T07:30:33.638Z,12.00
2022-11-17T07:31:33.653Z,7.70
2022-11-17T07:32:33.613Z,14.30
2022-11-17T07:33:33.596Z,10.40
2022-11-17T07:34:33.623Z,8.80
2022-11-17T07:35:33.585Z,9.30
2022-11-17T07:36:33.576Z,9.60
2022-11-17T07:37:33.639Z,10.20
2022-11-17T07:38:33.962Z,9.70
2022-11-17T07:39:33.514Z,12.90
2022-11-17T07:40:33.569Z,7.20
2022-11-17T07:41:33.506Z,9.00
2022-11-17T07:42:33.514Z,13.70
2022-11-17T07:43:33.452Z,9.30
2022-11-17T07:44:33.469Z,8.70
2022-11-17T07:45:33.521Z,11.40
2022-11-17T07:46:33.455Z,8.30
2022-11-17T07:47:33.483Z,6.20
2022-11-17T07:48:33.662Z,13.10
2022-11-17T07:49:33.451Z,9.10
2022-11-17T07:50:33.369Z,10.40
2022-11-17T07:51:33.459Z,8.20
2022-11-17T07:52:37.350Z,7.30
2022-11-17T07:53:33.532Z,13.00
2022-11-17T07:54:33.373Z,9.20
2022-11-17T07:55:33.327Z,7.20
2022-11-17T07:56:33.298Z,9.90
2022-11-17T07:57:33.287Z,11.10
2022-11-17T07:58:33.700Z,9.90
2022-11-17T07:59:33.395Z,9.50
2022-11-17T08:00:33.274Z,6.50
2022-11-17T08:01:33.286Z,7.40
2022-11-17T08:02:33.209Z,11.30
2022-11-17T08:03:33.349Z,10.40
2022-11-17T08:04:33.181Z,10.40
2022-11-17T08:05:37.035Z,11.20
2022-11-17T08:06:33.176Z,9.80
2022-11-17T08:07:33.221Z,10.20
2022-11-17T08:08:33.413Z,10.30
2022-11-17T08:09:33.192Z,8.60
2022-11-17T08:10:33.095Z,11.90
2022-11-17T08:11:34.253Z,6.30
2022-11-17T08:12:33.136Z,9.20
2022-11-17T08:13:33.102Z,8.60
2022-11-17T08:14:33.078Z,9.70
2022-11-17T08:15:33.055Z,8.90
2022-11-17T08:16:33.022Z,8.60
2022-11-17T08:17:33.029Z,12.10
2022-11-17T08:18:33.248Z,11.00
2022-11-17T08:19:33.062Z,9.40
2022-11-17T08:20:32.960Z,5.80
2022-11-17T08:21:32.966Z,10.10
2022-11-17T08:22:32.998Z,10.40
2022-11-17T08:23:32.962Z,9.80
2022-11-17T08:24:32.903Z,8.80
2022-11-17T08:25:32.974Z,6.80
2022-11-17T08:26:32.886Z,9.10
2022-11-17T08:27:32.927Z,12.00
2022-11-17T08:28:33.088Z,9.80
2022-11-17T08:29:32.857Z,9.50
2022-11-17T08:30:32.865Z,8.00
2022-11-17T08:31:32.861Z,7.60
2022-11-17T08:32:32.799Z,8.40
2022-11-17T08:33:32.831Z,8.80
2022-11-17T08:34:32.786Z,16.80
2022-11-17T08:35:37.126Z,8.80
2022-11-17T08:36:32.776Z,10.50
2022-11-17T08:37:32.774Z,11.60
2022-11-17T08:38:32.806Z,11.80
2022-11-17T08:39:32.734Z,11.30
2022-11-17T08:40:32.732Z,9.20
2022-11-17T08:41:32.721Z,8.30
2022-11-17T08:42:32.696Z,9.10
2022-11-17T08:43:32.679Z,9.60
2022-11-17T08:44:32.636Z,12.20
2022-11-17T08:45:32.692Z,11.10
2022-11-17T08:46:32.661Z,14.10
2022-11-17T08:47:32.706Z,9.00
2022-11-17T08:48:32.916Z,11.20
2022-11-17T08:49:32.602Z,7.80
2022-11-17T08:50:32.566Z,7.10
2022-11-17T08:51:32.617Z,11.00
2022-11-17T08:52:32.533Z,13.10
2022-11-17T08:53:32.544Z,7.70
2022-11-17T08:54:32.624Z,9.30
2022-11-17T08:55:35.679Z,10.30
2022-11-17T08:56:32.554Z,8.60
2022-11-17T08:57:32.722Z,9.40
2022-11-17T08:58:32.712Z,8.90
2022-11-17T08:59:32.470Z,7.80
2022-11-17T09:00:32.437Z,7.40
2022-11-17T09:01:32.547Z,11.00
2022-11-17T09:02:32.437Z,7.00
2022-11-17T09:03:32.431Z,8.80
2022-11-17T09:04:32.387Z,9.00
2022-11-17T09:05:32.395Z,6.20
2022-11-17T09:06:32.352Z,8.10
2022-11-17T09:07:34.868Z,8.80
2022-11-17T09:08:47.956Z,7.10
2022-11-17T09:09:32.429Z,6.90
2022-11-17T09:10:32.329Z,11.10
2022-11-17T09:11:32.317Z,8.10
2022-11-17T09:12:32.326Z,12.20
2022-11-17T09:13:32.275Z,7.40
2022-11-17T09:14:32.240Z,8.60
2022-11-17T09:15:32.329Z,9.50
2022-11-17T09:16:32.241Z,10.70
2022-11-17T09:17:32.277Z,8.20
2022-11-17T09:18:32.215Z,10.50
2022-11-17T09:19:32.248Z,10.00
2022-11-17T09:20:32.170Z,8.10
2022-11-17T09:21:32.192Z,12.00
2022-11-17T09:22:32.242Z,12.30
2022-11-17T09:23:32.338Z,9.40
2022-11-17T09:24:32.166Z,7.00
2022-11-17T09:25:32.122Z,11.40
2022-11-17T09:26:32.161Z,6.20
2022-11-17T09:27:32.097Z,9.40
2022-11-17T09:28:32.245Z,7.80
2022-11-17T09:30:48.158Z,10.00
2022-11-17T09:31:49.165Z,7.60
2022-11-17T09:32:49.119Z,10.70
2022-11-17T09:33:49.106Z,7.90
2022-11-17T09:34:49.147Z,11.70
2022-11-17T09:35:49.053Z,7.10
2022-11-17T09:36:49.133Z,10.20
2022-11-17T09:37:49.033Z,10.20
2022-11-17T09:38:49.285Z,6.40
2022-11-17T09:39:49.004Z,10.40
2022-11-17T09:40:49.021Z,11.50
2022-11-17T09:41:49.033Z,8.00
2022-11-17T09:42:48.988Z,8.30
2022-11-17T09:43:48.960Z,9.40
2022-11-17T09:44:49.006Z,6.60
2022-11-17T09:45:49.047Z,7.90
2022-11-17T09:46:48.966Z,9.60
2022-11-17T09:47:48.902Z,9.40
2022-11-17T09:48:48.968Z,8.50
2022-11-17T09:49:52.315Z,6.00
2022-11-17T09:50:48.899Z,9.30
2022-11-17T09:51:48.855Z,7.00
2022-11-17T09:52:48.942Z,7.50
2022-11-17T09:53:48.833Z,10.20
2022-11-17T09:54:49.001Z,9.90
2022-11-17T09:55:48.822Z,10.40
2022-11-17T09:56:48.822Z,9.40
2022-11-17T09:57:48.773Z,12.30
2022-11-17T09:58:48.794Z,8.80
2022-11-17T09:59:48.749Z,7.70
2022-11-17T10:00:48.784Z,9.70
2022-11-17T10:01:48.738Z,8.90
2022-11-17T10:02:48.731Z,9.30
2022-11-17T10:03:48.971Z,7.10
2022-11-17T10:04:48.759Z,9.60
2022-11-17T10:05:48.707Z,6.00
2022-11-17T10:06:48.679Z,10.30
2022-11-17T10:07:48.660Z,9.20
2022-11-17T10:08:48.662Z,6.80
2022-11-17T10:09:48.618Z,7.40
2022-11-17T10:10:48.729Z,11.00
2022-11-17T10:11:48.590Z,9.10
2022-11-17T10:12:48.597Z,10.70
2022-11-17T10:13:48.571Z,10.30
2022-11-17T10:14:48.580Z,10.60
2022-11-17T10:15:48.534Z,7.40
2022-11-17T10:16:48.593Z,9.10
2022-11-17T10:17:48.565Z,10.70
2022-11-17T10:18:48.524Z,8.90
2022-11-17T10:19:48.487Z,7.10
2022-11-17T10:20:48.496Z,8.30
2022-11-17T10:21:48.534Z,5.70
2022-11-17T10:22:48.476Z,9.10
2022-11-17T10:23:48.786Z,8.90
2022-11-17T10:24:48.465Z,8.90
2022-11-17T10:25:48.486Z,7.60
2022-11-17T10:26:48.462Z,8.00
2022-11-17T10:27:48.383Z,9.20
2022-11-17T10:28:48.389Z,9.30
2022-11-17T10:29:48.407Z,8.50
2022-11-17T10:30:48.365Z,9.10
2022-11-17T10:31:48.335Z,8.90
2022-11-17T10:32:48.630Z,9.90
2022-11-17T10:33:48.467Z,7.30
2022-11-17T10:34:48.332Z,8.00
2022-11-17T10:35:48.306Z,10.20
2022-11-17T10:36:48.295Z,7.20
2022-11-17T10:37:48.275Z,5.00
2022-11-17T10:38:48.260Z,6.00
2022-11-17T10:39:48.227Z,6.40
2022-11-17T10:40:48.246Z,8.40
2022-11-17T10:41:48.221Z,7.60
2022-11-17T10:42:48.248Z,7.30
2022-11-17T10:43:48.178Z,8.90
2022-11-17T10:44:48.188Z,7.00
2022-11-17T10:45:48.156Z,9.50
2022-11-17T10:46:48.169Z,11.10
2022-11-17T10:47:48.131Z,9.00
2022-11-17T10:48:48.164Z,8.20
2022-11-17T10:49:48.111Z,10.90
2022-11-17T10:50:48.109Z,6.60
2022-11-17T10:51:48.068Z,6.10
2022-11-17T10:52:48.211Z,13.90
2022-11-17T10:53:48.248Z,9.90
2022-11-17T10:54:48.067Z,6.80
2022-11-17T10:55:48.110Z,8.30
2022-11-17T10:56:48.052Z,5.00
2022-11-17T10:57:47.989Z,8.70
2022-11-17T10:58:48.105Z,6.70
2022-11-17T10:59:53.447Z,7.70
2022-11-17T11:00:48.013Z,11.20
2022-11-17T11:01:48.054Z,10.90
2022-11-17T11:02:47.958Z,6.90
2022-11-17T11:03:47.996Z,7.70
2022-11-17T11:04:47.967Z,6.40
2022-11-17T11:05:47.976Z,7.50
2022-11-17T11:06:47.893Z,3.60
2022-11-17T11:07:47.856Z,4.10
2022-11-17T11:08:47.984Z,4.20
2022-11-17T11:09:47.864Z,4.20
2022-11-17T11:10:47.869Z,7.00
2022-11-17T11:11:47.816Z,5.50
2022-11-17T11:12:47.881Z,3.00
2022-11-17T11:13:47.785Z,6.30
2022-11-17T11:14:47.880Z,3.70
2022-11-17T11:15:47.821Z,3.80
2022-11-17T11:16:48.430Z,3.00
2022-11-17T11:17:47.730Z,6.60
2022-11-17T11:18:47.859Z,5.80
2022-11-17T11:19:47.708Z,6.50
2022-11-17T11:20:47.806Z,5.60
2022-11-17T11:21:47.687Z,4.40
2022-11-17T11:22:47.688Z,6.60
2022-11-17T11:23:47.662Z,7.50
2022-11-17T11:24:47.669Z,8.30
2022-11-17T11:25:47.665Z,9.70
2022-11-17T11:26:47.640Z,6.80
2022-11-17T11:27:47.601Z,9.60
2022-11-17T11:28:52.731Z,11.90
2022-11-17T11:29:47.607Z,11.90
2022-11-17T11:30:47.605Z,10.30
2022-11-17T11:31:47.570Z,8.70
2022-11-17T11:32:47.555Z,8.70
2022-11-17T11:33:47.559Z,7.70
2022-11-17T11:34:47.506Z,15.40
2022-11-17T11:35:47.556Z,9.50
2022-11-17T11:36:47.515Z,9.70
2022-11-17T11:37:47.501Z,10.80
2022-11-17T11:38:47.457Z,9.30
2022-11-17T11:39:47.520Z,9.40
2022-11-17T11:40:47.435Z,12.50
2022-11-17T11:41:47.475Z,14.10
2022-11-17T11:42:47.409Z,8.70
2022-11-17T11:43:47.459Z,11.90
2022-11-17T11:44:47.380Z,7.00
2022-11-17T11:45:47.388Z,10.80
2022-11-17T11:46:47.415Z,9.40
2022-11-17T11:47:47.368Z,7.50
2022-11-17T11:48:47.327Z,12.50
2022-11-17T11:49:47.336Z,10.00
2022-11-17T11:50:47.322Z,11.20
2022-11-17T11:51:47.321Z,11.40
2022-11-17T11:52:47.321Z,11.70
2022-11-17T11:53:47.525Z,9.40
2022-11-17T11:54:50.862Z,8.90
2022-11-17T11:55:47.269Z,9.90
2022-11-17T11:56:47.277Z,9.10
2022-11-17T11:57:47.261Z,11.70
2022-11-17T11:58:47.204Z,13.60
2022-11-17T11:59:47.217Z,14.20
2022-11-17T12:00:47.198Z,12.40
2022-11-17T12:01:47.315Z,13.40
2022-11-17T12:02:47.265Z,8.90
2022-11-17T12:03:47.155Z,9.10
2022-11-17T12:04:47.192Z,8.40
2022-11-17T12:05:47.130Z,9.10
2022-11-17T12:06:47.097Z,8.80
2022-11-17T12:07:47.109Z,13.60
2022-11-17T12:08:47.164Z,8.00
2022-11-17T12:09:47.086Z,10.00
2022-11-17T12:10:47.067Z,11.50
2022-11-17T12:11:47.062Z,9.10
2022-11-17T12:12:47.114Z,11.00
2022-11-17T12:13:52.724Z,7.40
2022-11-17T12:14:47.002Z,6.70
2022-11-17T12:15:47.003Z,8.40
2022-11-17T12:16:47.042Z,9.10
2022-11-17T12:17:46.987Z,7.90
2022-11-17T12:18:46.974Z,7.00
2022-11-17T12:19:46.955Z,9.50
2022-11-17T12:20:46.988Z,8.80
2022-11-17T12:21:46.919Z,11.30
2022-11-17T12:22:46.886Z,8.10
2022-11-17T12:23:46.909Z,7.00
2022-11-17T12:24:46.904Z,7.20
2022-11-17T12:25:53.292Z,7.90
2022-11-17T12:26:46.836Z,8.00
2022-11-17T12:27:46.850Z,9.50
2022-11-17T12:28:46.825Z,7.30
2022-11-17T12:29:46.842Z,7.30
2022-11-17T12:30:46.803Z,11.60
2022-11-17T12:31:46.812Z,11.50
2022-11-17T12:32:46.817Z,11.90
2022-11-17T12:33:46.790Z,9.80
2022-11-17T12:34:46.780Z,9.00
2022-11-17T12:35:46.808Z,10.10
2022-11-17T12:36:46.752Z,7.90
2022-11-17T12:37:46.727Z,12.40
2022-11-17T12:38:46.685Z,7.40
2022-11-17T12:39:46.729Z,10.30
2022-11-17T12:40:46.678Z,8.10
2022-11-17T12:41:46.669Z,7.60
2022-11-17T12:42:46.663Z,10.60
2022-11-17T12:43:46.636Z,9.60
2022-11-17T12:44:46.737Z,10.30
2022-11-17T12:45:46.648Z,11.30
2022-11-17T12:46:46.575Z,8.60
2022-11-17T12:47:59.486Z,10.40
2022-11-17T12:48:46.657Z,6.80
2022-11-17T12:49:46.643Z,8.70
2022-11-17T12:50:46.545Z,8.90
2022-11-17T12:51:46.547Z,10.20
2022-11-17T12:52:46.537Z,10.90
2022-11-17T12:53:46.502Z,8.20
2022-11-17T12:54:46.470Z,7.50
2022-11-17T12:55:46.485Z,8.90
2022-11-17T12:56:46.466Z,8.20
2022-11-17T12:57:46.449Z,8.30
2022-11-17T12:58:46.420Z,16.50
2022-11-17T12:59:46.615Z,7.80
2022-11-17T13:00:46.386Z,11.20
2022-11-17T13:01:46.554Z,13.10
2022-11-17T13:02:46.393Z,8.60
2022-11-17T13:03:46.390Z,9.80
2022-11-17T13:04:49.451Z,6.90
2022-11-17T13:05:46.351Z,7.30
2022-11-17T13:06:46.309Z,11.10
2022-11-17T13:07:46.321Z,9.20
2022-11-17T13:08:46.312Z,8.30
2022-11-17T13:09:46.297Z,10.30
2022-11-17T13:10:46.251Z,9.00
2022-11-17T13:11:46.288Z,11.90
2022-11-17T13:12:46.227Z,9.10
2022-11-17T13:13:47.358Z,6.80
2022-11-17T13:14:46.238Z,9.50
2022-11-17T13:15:46.213Z,9.80